Time;durP1;ratioP1;P1;durP2;ratioP2;P2;SDS_P1;SDS_P2;PMS_P1;PMS_P2;Temp;Humidity;BMP_temperature;BMP_pressure;BME280_temperature;BME280_humidity;BME280_pressure;Samples;Min_cycle;Max_cycle;Signal;HPM_P1;HPM_P2
2021/03/21 00:02:06;;;;;;;0.20;0.20;;;;;;;;;;5066304;28;20221;-74
2021/03/21 00:04:33;;;;;;;0.20;0.20;;;;;;;;;;5084453;28;20526;-75
2021/03/21 00:06:59;;;;;;;0.20;0.20;;;;;;;;;;5053576;28;20250;-74
2021/03/21 00:09:26;;;;;;;0.20;0.20;;;;;;;;;;5063038;28;20191;-74
2021/03/21 00:11:52;;;;;;;0.20;0.20;;;;;;;;;;5067858;28;20203;-73
2021/03/21 00:14:19;;;;;;;0.20;0.20;;;;;;;;;;5063113;28;20307;-73
2021/03/21 00:16:46;;;;;;;0.27;0.27;;;;;;;;;;5051050;28;20295;-75
2021/03/21 00:19:12;;;;;;;0.20;0.20;;;;;;;;;;5065199;28;20274;-74
2021/03/21 00:21:41;;;;;;;0.20;0.20;;;;;;;;;;5083353;28;20205;-73
2021/03/21 00:24:08;;;;;;;0.20;0.20;;;;;;;;;;5077605;28;20213;-68
2021/03/21 00:26:35;;;;;;;0.20;0.20;;;;;;;;;;5072132;28;20222;-68
2021/03/21 00:29:02;;;;;;;0.20;0.20;;;;;;;;;;5076845;28;20203;-68
2021/03/21 00:31:28;;;;;;;0.20;0.20;;;;;;;;;;5056682;28;20269;-69
2021/03/21 00:33:54;;;;;;;0.20;0.20;;;;;;;;;;5082463;28;20217;-68
2021/03/21 00:36:20;;;;;;;0.20;0.20;;;;;;;;;;5052955;28;20196;-69
2021/03/21 00:38:48;;;;;;;0.20;0.20;;;;;;;;;;5081692;28;20234;-68
2021/03/21 00:41:15;;;;;;;1.60;1.43;;;;;;;;;;5063435;28;20200;-69
2021/03/21 00:43:42;;;;;;;0.20;0.20;;;;;;;;;;5072117;28;20390;-68
2021/03/21 00:46:09;;;;;;;0.20;0.20;;;;;;;;;;5067075;28;20395;-69
2021/03/21 00:48:37;;;;;;;0.20;0.20;;;;;;;;;;5070610;28;20204;-69
2021/03/21 00:51:07;;;;;;;0.20;0.20;;;;;;;;;;5085063;28;20199;-69
2021/03/21 00:53:33;;;;;;;0.20;0.20;;;;;;;;;;5070696;28;20275;-68
2021/03/21 00:56:03;;;;;;;0.20;0.20;;;;;;;;;;5076535;28;20231;-69
2021/03/21 00:58:29;;;;;;;0.20;0.20;;;;;;;;;;5086875;28;20233;-70
2021/03/21 01:00:58;;;;;;;0.30;0.30;;;;;;;;;;5086338;28;20403;-70
2021/03/21 01:03:25;;;;;;;0.20;0.20;;;;;;;;;;5069123;28;20265;-69
2021/03/21 01:05:52;;;;;;;0.20;0.20;;;;;;;;;;5077936;28;20537;-67
2021/03/21 01:08:19;;;;;;;0.20;0.20;;;;;;;;;;5085584;28;20195;-69
2021/03/21 01:10:45;;;;;;;0.20;0.20;;;;;;;;;;5069909;28;20510;-69
2021/03/21 01:13:12;;;;;;;0.20;0.20;;;;;;;;;;5081243;28;20500;-69
2021/03/21 01:15:38;;;;;;;0.20;0.20;;;;;;;;;;5054044;28;20211;-69
2021/03/21 01:18:06;;;;;;;0.20;0.20;;;;;;;;;;5054630;28;20220;-69
2021/03/21 01:20:33;;;;;;;0.20;0.20;;;;;;;;;;5065345;28;20218;-67
2021/03/21 01:22:59;;;;;;;0.20;0.20;;;;;;;;;;5057042;28;20487;-67
2021/03/21 01:25:27;;;;;;;0.20;0.20;;;;;;;;;;5082322;28;20394;-68
2021/03/21 01:27:54;;;;;;;0.20;0.20;;;;;;;;;;5054360;28;20491;-68
2021/03/21 01:30:22;;;;;;;0.20;0.20;;;;;;;;;;5062958;28;20200;-68
2021/03/21 01:32:48;;;;;;;0.20;0.20;;;;;;;;;;5061345;28;20502;-67
2021/03/21 01:35:15;;;;;;;0.20;0.20;;;;;;;;;;5080653;28;20203;-68
2021/03/21 01:37:42;;;;;;;0.20;0.20;;;;;;;;;;5066277;28;20227;-68
2021/03/21 01:40:09;;;;;;;0.20;0.20;;;;;;;;;;5065158;28;20562;-68
2021/03/21 01:42:36;;;;;;;0.20;0.20;;;;;;;;;;5060383;28;20200;-68
2021/03/21 01:45:03;;;;;;;0.20;0.20;;;;;;;;;;5074588;28;20501;-68
2021/03/21 01:47:37;;;;;;;0.20;0.20;;;;;;;;;;5053645;28;20196;-68
2021/03/21 01:50:08;;;;;;;0.20;0.20;;;;;;;;;;5080439;28;20195;-68
2021/03/21 01:52:36;;;;;;;0.20;0.20;;;;;;;;;;5068810;28;20204;-68
2021/03/21 01:55:05;;;;;;;0.20;0.20;;;;;;;;;;5075168;28;20491;-68
2021/03/21 01:57:32;;;;;;;0.20;0.20;;;;;;;;;;5072096;28;20231;-67
2021/03/21 01:59:58;;;;;;;0.20;0.20;;;;;;;;;;5057465;28;20428;-68
2021/03/21 02:02:24;;;;;;;0.20;0.20;;;;;;;;;;5075261;28;20570;-68
2021/03/21 02:04:51;;;;;;;0.20;0.20;;;;;;;;;;5061681;28;20297;-68
2021/03/21 02:07:22;;;;;;;0.20;0.20;;;;;;;;;;5062123;28;20228;-68
2021/03/21 02:09:54;;;;;;;0.20;0.20;;;;;;;;;;5080658;28;20196;-68
2021/03/21 02:12:25;;;;;;;0.20;0.20;;;;;;;;;;5070338;28;20292;-68
2021/03/21 02:14:54;;;;;;;0.20;0.20;;;;;;;;;;5074459;28;20384;-68
2021/03/21 02:17:23;;;;;;;0.20;0.20;;;;;;;;;;5068221;28;20256;-68
2021/03/21 02:20:04;;;;;;;0.20;0.20;;;;;;;;;;5073990;28;20237;-68
2021/03/21 02:22:32;;;;;;;0.20;0.20;;;;;;;;;;5075265;28;20208;-69
2021/03/21 02:25:14;;;;;;;0.20;0.20;;;;;;;;;;5055771;28;20196;-68
2021/03/21 02:27:50;;;;;;;0.20;0.20;;;;;;;;;;5077192;28;20266;-69
2021/03/21 02:30:19;;;;;;;0.20;0.20;;;;;;;;;;5082292;28;20203;-68
2021/03/21 02:32:51;;;;;;;0.20;0.20;;;;;;;;;;5077928;28;20260;-68
2021/03/21 02:35:19;;;;;;;0.20;0.20;;;;;;;;;;5075378;28;20274;-68
2021/03/21 02:37:49;;;;;;;0.20;0.20;;;;;;;;;;5070986;28;20405;-68
2021/03/21 02:40:21;;;;;;;0.20;0.20;;;;;;;;;;5079093;28;20199;-68
2021/03/21 02:42:51;;;;;;;0.20;0.20;;;;;;;;;;5081578;28;20199;-68
2021/03/21 02:45:19;;;;;;;0.20;0.20;;;;;;;;;;5076556;28;20257;-68
2021/03/21 02:47:47;;;;;;;0.83;0.83;;;;;;;;;;5077877;28;20206;-68
2021/03/21 02:50:16;;;;;;;0.20;0.20;;;;;;;;;;5059390;28;20219;-69
2021/03/21 02:52:44;;;;;;;0.20;0.20;;;;;;;;;;5066577;28;20311;-69
2021/03/21 02:55:13;;;;;;;0.20;0.20;;;;;;;;;;5072652;28;20253;-69
2021/03/21 02:57:43;;;;;;;0.20;0.20;;;;;;;;;;5072829;28;20219;-68
2021/03/21 03:00:10;;;;;;;0.20;0.20;;;;;;;;;;5072252;28;20203;-70
2021/03/21 03:02:39;;;;;;;0.20;0.20;;;;;;;;;;5059794;28;20203;-68
2021/03/21 03:05:09;;;;;;;0.20;0.20;;;;;;;;;;5080283;28;20231;-69
2021/03/21 03:07:38;;;;;;;0.20;0.20;;;;;;;;;;5083021;28;20486;-68
2021/03/21 03:10:07;;;;;;;0.20;0.20;;;;;;;;;;5081877;28;20241;-69
2021/03/21 03:12:34;;;;;;;0.20;0.20;;;;;;;;;;5064400;28;20206;-69
2021/03/21 03:15:02;;;;;;;0.20;0.20;;;;;;;;;;5047564;28;20272;-68
2021/03/21 03:17:30;;;;;;;0.20;0.20;;;;;;;;;;5078522;28;20290;-68
2021/03/21 03:20:03;;;;;;;0.20;0.20;;;;;;;;;;5060735;28;20506;-67
2021/03/21 03:22:32;;;;;;;0.20;0.20;;;;;;;;;;5082642;28;20203;-68
2021/03/21 03:25:06;;;;;;;0.20;0.20;;;;;;;;;;5072860;28;20202;-68
2021/03/21 03:27:35;;;;;;;0.20;0.20;;;;;;;;;;5076778;28;20502;-67
2021/03/21 03:30:05;;;;;;;0.20;0.20;;;;;;;;;;5076105;28;20199;-68
2021/03/21 03:32:31;;;;;;;0.20;0.20;;;;;;;;;;5071280;28;20203;-68
2021/03/21 03:34:58;;;;;;;0.20;0.20;;;;;;;;;;5079510;28;20199;-68
2021/03/21 03:37:25;;;;;;;0.20;0.20;;;;;;;;;;5061008;28;20219;-67
2021/03/21 03:39:52;;;;;;;0.20;0.20;;;;;;;;;;5082230;28;20233;-68
2021/03/21 03:42:21;;;;;;;0.20;0.20;;;;;;;;;;5083948;28;20207;-67
2021/03/21 03:44:54;;;;;;;0.20;0.20;;;;;;;;;;5071525;28;20207;-68
2021/03/21 03:47:23;;;;;;;0.20;0.20;;;;;;;;;;5085132;28;20196;-67
2021/03/21 03:49:54;;;;;;;0.20;0.20;;;;;;;;;;5083009;28;20501;-68
2021/03/21 03:52:31;;;;;;;0.20;0.20;;;;;;;;;;5082843;28;20199;-68
2021/03/21 03:55:01;;;;;;;0.20;0.20;;;;;;;;;;5074744;28;20503;-68
2021/03/21 03:57:29;;;;;;;0.20;0.20;;;;;;;;;;5084205;28;20222;-68
2021/03/21 03:59:59;;;;;;;0.20;0.20;;;;;;;;;;5076114;28;20248;-68
2021/03/21 04:02:28;;;;;;;0.20;0.20;;;;;;;;;;5077387;28;20206;-68
2021/03/21 04:04:57;;;;;;;0.20;0.20;;;;;;;;;;5078176;28;20302;-68
2021/03/21 04:07:26;;;;;;;0.13;0.13;;;;;;;;;;5084239;28;20266;-68
2021/03/21 04:09:54;;;;;;;0.20;0.20;;;;;;;;;;5083525;28;20211;-68
2021/03/21 04:12:26;;;;;;;0.20;0.20;;;;;;;;;;5082909;28;20491;-67
2021/03/21 04:14:54;;;;;;;0.20;0.20;;;;;;;;;;5077621;28;20203;-67
2021/03/21 04:17:23;;;;;;;0.20;0.20;;;;;;;;;;5066274;28;20219;-68
2021/03/21 04:19:53;;;;;;;0.20;0.20;;;;;;;;;;5075338;28;20202;-67
2021/03/21 04:22:21;;;;;;;0.30;0.30;;;;;;;;;;5075367;28;20499;-67
2021/03/21 04:24:50;;;;;;;0.20;0.20;;;;;;;;;;5071928;28;20268;-68
2021/03/21 04:27:19;;;;;;;0.20;0.20;;;;;;;;;;5098496;28;20233;-67
2021/03/21 04:29:49;;;;;;;0.20;0.20;;;;;;;;;;5075142;28;20200;-68
2021/03/21 04:32:26;;;;;;;0.20;0.20;;;;;;;;;;5081800;28;20204;-67
2021/03/21 04:34:54;;;;;;;0.20;0.20;;;;;;;;;;5075322;28;20271;-67
2021/03/21 04:37:21;;;;;;;0.20;0.20;;;;;;;;;;5081743;28;20219;-70
2021/03/21 04:39:49;;;;;;;0.20;0.20;;;;;;;;;;5053271;28;20227;-69
2021/03/21 04:42:17;;;;;;;0.20;0.20;;;;;;;;;;5061177;28;20218;-71
2021/03/21 04:44:46;;;;;;;0.20;0.20;;;;;;;;;;5078527;28;20210;-70
2021/03/21 04:47:15;;;;;;;0.20;0.20;;;;;;;;;;5061980;28;20314;-71
2021/03/21 04:49:42;;;;;;;0.20;0.20;;;;;;;;;;5091115;28;20208;-70
2021/03/21 04:52:20;;;;;;;0.20;0.20;;;;;;;;;;5050374;28;20200;-71
2021/03/21 04:54:47;;;;;;;0.20;0.20;;;;;;;;;;5081748;28;20545;-70
2021/03/21 04:57:17;;;;;;;0.20;0.20;;;;;;;;;;5077280;28;20531;-71
2021/03/21 04:59:45;;;;;;;0.20;0.20;;;;;;;;;;5075222;28;20199;-70
2021/03/21 05:02:13;;;;;;;0.20;0.20;;;;;;;;;;5060717;28;20199;-71
2021/03/21 05:04:41;;;;;;;0.20;0.20;;;;;;;;;;5065382;28;20224;-70
2021/03/21 05:07:13;;;;;;;0.20;0.20;;;;;;;;;;5081953;28;20199;-70
2021/03/21 05:09:40;;;;;;;0.20;0.20;;;;;;;;;;5064537;28;20196;-71
2021/03/21 05:12:11;;;;;;;0.20;0.20;;;;;;;;;;5079188;28;20494;-70
2021/03/21 05:14:39;;;;;;;0.20;0.20;;;;;;;;;;5065606;28;20207;-71
2021/03/21 05:17:17;;;;;;;5.03;4.80;;;;;;;;;;5058978;28;20198;-70
2021/03/21 05:19:47;;;;;;;0.20;0.20;;;;;;;;;;5078481;28;20204;-70
2021/03/21 05:22:18;;;;;;;0.20;0.20;;;;;;;;;;5078396;28;20225;-70
2021/03/21 05:24:48;;;;;;;0.20;0.20;;;;;;;;;;5084415;28;20196;-70
2021/03/21 05:27:15;;;;;;;0.10;0.10;;;;;;;;;;5075369;28;20241;-70
2021/03/21 05:29:47;;;;;;;0.17;0.17;;;;;;;;;;5087741;28;20210;-70
2021/03/21 05:32:16;;;;;;;0.20;0.20;;;;;;;;;;5078224;28;20203;-70
2021/03/21 05:34:43;;;;;;;0.20;0.20;;;;;;;;;;5062425;28;20237;-71
2021/03/21 05:37:16;;;;;;;0.20;0.20;;;;;;;;;;5064961;28;20210;-71
2021/03/21 05:39:43;;;;;;;0.20;0.20;;;;;;;;;;5080353;28;20203;-70
2021/03/21 05:42:22;;;;;;;0.10;0.10;;;;;;;;;;5079911;28;20207;-70
2021/03/21 05:45:12;;;;;;;0.20;0.20;;;;;;;;;;5083068;28;20221;-69
2021/03/21 05:47:56;;;;;;;0.20;0.20;;;;;;;;;;5066281;28;20204;-70
2021/03/21 05:50:37;;;;;;;0.20;0.20;;;;;;;;;;5099563;28;20482;-70
2021/03/21 05:53:20;;;;;;;0.20;0.20;;;;;;;;;;5076774;28;20213;-71
2021/03/21 05:56:00;;;;;;;0.20;0.20;;;;;;;;;;5059451;28;20270;-70
2021/03/21 05:58:56;;;;;;;0.20;0.20;;;;;;;;;;5068010;28;20496;-68
2021/03/21 06:01:46;;;;;;;0.20;0.20;;;;;;;;;;5077883;28;20431;-70
2021/03/21 06:04:30;;;;;;;0.20;0.20;;;;;;;;;;5059799;28;20526;-70
2021/03/21 06:07:21;;;;;;;0.20;0.20;;;;;;;;;;5083884;28;20196;-70
2021/03/21 06:09:57;;;;;;;0.20;0.20;;;;;;;;;;5073788;28;20211;-70
2021/03/21 06:12:36;;;;;;;0.20;0.20;;;;;;;;;;5073017;28;20207;-70
2021/03/21 06:15:29;;;;;;;0.20;0.20;;;;;;;;;;5074724;28;20196;-69
2021/03/21 06:18:10;;;;;;;0.20;0.20;;;;;;;;;;5025048;28;20223;-69
2021/03/21 06:20:59;;;;;;;0.20;0.20;;;;;;;;;;5066561;28;20198;-70
2021/03/21 06:23:42;;;;;;;0.20;0.20;;;;;;;;;;5081912;28;20203;-70
2021/03/21 06:26:14;;;;;;;0.20;0.20;;;;;;;;;;5084242;28;20486;-70
2021/03/21 06:28:43;;;;;;;0.20;0.20;;;;;;;;;;5079480;28;20200;-70
2021/03/21 06:31:26;;;;;;;0.20;0.20;;;;;;;;;;5078309;28;20211;-71
2021/03/21 06:33:56;;;;;;;0.20;0.20;;;;;;;;;;5078032;28;20498;-70
2021/03/21 06:36:28;;;;;;;0.20;0.20;;;;;;;;;;5081494;28;20207;-71
2021/03/21 06:39:10;;;;;;;0.20;0.20;;;;;;;;;;5082942;28;20514;-71
2021/03/21 06:41:51;;;;;;;0.20;0.20;;;;;;;;;;5079825;28;20206;-70
2021/03/21 06:44:24;;;;;;;0.20;0.20;;;;;;;;;;5078333;28;20198;-70
2021/03/21 06:47:08;;;;;;;0.20;0.20;;;;;;;;;;5079611;28;20300;-70
2021/03/21 06:49:40;;;;;;;0.10;0.10;;;;;;;;;;5079012;28;20252;-69
2021/03/21 06:52:11;;;;;;;0.20;0.20;;;;;;;;;;5076063;28;20266;-71
2021/03/21 06:54:46;;;;;;;0.20;0.20;;;;;;;;;;5079401;28;20203;-70
2021/03/21 06:57:23;;;;;;;0.10;0.10;;;;;;;;;;5080588;28;20198;-69
2021/03/21 07:00:02;;;;;;;0.20;0.20;;;;;;;;;;5076103;28;20204;-70
2021/03/21 07:03:01;;;;;;;0.20;0.20;;;;;;;;;;5070011;28;20203;-70
2021/03/21 07:05:46;;;;;;;0.20;0.20;;;;;;;;;;5022063;28;20296;-70
2021/03/21 07:08:29;;;;;;;0.20;0.20;;;;;;;;;;5012172;28;20197;-71
2021/03/21 07:11:17;;;;;;;0.20;0.20;;;;;;;;;;5057335;28;20514;-69
2021/03/21 07:14:01;;;;;;;0.20;0.20;;;;;;;;;;5088867;28;20522;-70
2021/03/21 07:16:49;;;;;;;0.20;0.20;;;;;;;;;;5071886;28;20199;-70
2021/03/21 07:19:25;;;;;;;0.13;0.13;;;;;;;;;;5083800;28;20269;-71
2021/03/21 07:22:07;;;;;;;0.10;0.10;;;;;;;;;;5081104;28;20210;-70
2021/03/21 07:24:51;;;;;;;0.20;0.20;;;;;;;;;;5080482;28;20199;-70
2021/03/21 07:27:27;;;;;;;0.10;0.10;;;;;;;;;;5056095;28;20200;-69
2021/03/21 07:29:54;;;;;;;0.20;0.20;;;;;;;;;;5078984;28;20242;-70
2021/03/21 07:32:39;;;;;;;0.10;0.10;;;;;;;;;;5072768;28;20199;-70
2021/03/21 07:35:18;;;;;;;0.17;0.17;;;;;;;;;;5076763;28;20253;-70
2021/03/21 07:37:51;;;;;;;0.10;0.10;;;;;;;;;;5082134;28;20446;-71
2021/03/21 07:40:22;;;;;;;0.20;0.20;;;;;;;;;;5082379;28;20305;-71
2021/03/21 07:42:59;;;;;;;0.20;0.20;;;;;;;;;;5083946;28;20200;-71
2021/03/21 07:45:44;;;;;;;0.20;0.20;;;;;;;;;;5069085;28;20199;-68
2021/03/21 07:48:15;;;;;;;0.20;0.20;;;;;;;;;;5093216;28;20275;-70
2021/03/21 07:50:53;;;;;;;0.20;0.20;;;;;;;;;;5079543;28;20212;-69
2021/03/21 07:53:23;;;;;;;0.17;0.17;;;;;;;;;;5064491;28;20204;-71
2021/03/21 07:55:52;;;;;;;0.20;0.20;;;;;;;;;;5074044;28;20203;-71
2021/03/21 07:58:22;;;;;;;0.20;0.20;;;;;;;;;;5064624;28;20317;-69
2021/03/21 08:00:49;;;;;;;0.10;0.10;;;;;;;;;;5071781;28;20207;-71
2021/03/21 08:03:24;;;;;;;0.20;0.20;;;;;;;;;;5063696;28;20295;-69
2021/03/21 08:05:51;;;;;;;0.10;0.10;;;;;;;;;;5081068;28;20281;-71
2021/03/21 08:08:21;;;;;;;0.20;0.20;;;;;;;;;;5056982;28;20196;-70
2021/03/21 08:10:52;;;;;;;0.20;0.20;;;;;;;;;;5080845;28;20203;-72
2021/03/21 08:13:22;;;;;;;0.10;0.10;;;;;;;;;;5074713;28;20204;-71
2021/03/21 08:15:49;;;;;;;0.20;0.20;;;;;;;;;;5081104;28;20241;-70
2021/03/21 08:18:16;;;;;;;0.20;0.20;;;;;;;;;;5066452;28;20220;-70
2021/03/21 08:20:47;;;;;;;0.10;0.10;;;;;;;;;;5084333;28;20200;-70
2021/03/21 08:23:15;;;;;;;0.10;0.10;;;;;;;;;;5075318;28;20206;-71
2021/03/21 08:25:41;;;;;;;0.20;0.20;;;;;;;;;;5058954;28;20199;-70
2021/03/21 08:28:11;;;;;;;0.20;0.20;;;;;;;;;;5083035;28;20197;-71
2021/03/21 08:30:48;;;;;;;0.10;0.10;;;;;;;;;;5086210;28;20400;-70
2021/03/21 08:33:24;;;;;;;0.20;0.20;;;;;;;;;;5080898;28;20283;-71
2021/03/21 08:36:05;;;;;;;0.10;0.10;;;;;;;;;;5085252;28;20329;-71
2021/03/21 08:38:34;;;;;;;0.10;0.10;;;;;;;;;;5081839;28;20227;-72
2021/03/21 08:41:02;;;;;;;0.10;0.10;;;;;;;;;;5083044;28;20227;-70
2021/03/21 08:43:30;;;;;;;0.20;0.20;;;;;;;;;;5083391;28;20196;-69
2021/03/21 08:46:09;;;;;;;0.17;0.17;;;;;;;;;;5083046;28;20209;-70
2021/03/21 08:48:37;;;;;;;0.20;0.20;;;;;;;;;;5082243;28;20197;-70
2021/03/21 08:51:24;;;;;;;0.10;0.10;;;;;;;;;;5086386;28;20273;-71
2021/03/21 08:53:55;;;;;;;0.20;0.20;;;;;;;;;;5073362;28;20195;-70
2021/03/21 08:56:23;;;;;;;0.20;0.20;;;;;;;;;;5084043;28;20203;-70
2021/03/21 08:58:50;;;;;;;0.20;0.20;;;;;;;;;;5078756;28;20416;-70
2021/03/21 09:01:19;;;;;;;0.10;0.10;;;;;;;;;;5084185;28;20408;-71
2021/03/21 09:03:45;;;;;;;0.20;0.20;;;;;;;;;;5083501;28;20236;-71
2021/03/21 09:06:31;;;;;;;0.20;0.20;;;;;;;;;;5083438;28;20323;-70
2021/03/21 09:09:21;;;;;;;0.20;0.20;;;;;;;;;;5083418;28;20194;-71
2021/03/21 09:11:49;;;;;;;0.27;0.27;;;;;;;;;;5058968;28;20214;-70
2021/03/21 09:14:20;;;;;;;0.13;0.13;;;;;;;;;;5081317;28;20205;-70
2021/03/21 09:16:55;;;;;;;0.20;0.20;;;;;;;;;;5074782;28;20401;-70
2021/03/21 09:19:23;;;;;;;0.20;0.20;;;;;;;;;;5059652;28;20283;-70
2021/03/21 09:21:49;;;;;;;0.20;0.20;;;;;;;;;;5065394;28;20261;-70
2021/03/21 09:24:18;;;;;;;0.20;0.20;;;;;;;;;;5083244;28;20207;-69
2021/03/21 09:26:45;;;;;;;0.20;0.20;;;;;;;;;;5082842;28;20209;-70
2021/03/21 09:29:30;;;;;;;0.10;0.10;;;;;;;;;;5057980;28;20202;-70
2021/03/21 09:32:00;;;;;;;0.20;0.20;;;;;;;;;;5081712;28;20204;-70
2021/03/21 09:34:48;;;;;;;0.20;0.20;;;;;;;;;;5083798;28;20216;-69
2021/03/21 09:37:16;;;;;;;0.20;0.20;;;;;;;;;;5072064;28;20549;-73
2021/03/21 09:39:49;;;;;;;0.20;0.20;;;;;;;;;;5084152;28;20197;-70
2021/03/21 09:42:16;;;;;;;0.20;0.20;;;;;;;;;;5074551;28;20204;-70
2021/03/21 09:44:43;;;;;;;0.10;0.10;;;;;;;;;;5078734;28;20215;-70
2021/03/21 09:47:17;;;;;;;0.20;0.20;;;;;;;;;;5081021;28;20207;-69
2021/03/21 09:49:48;;;;;;;0.20;0.20;;;;;;;;;;5080294;28;20219;-70
2021/03/21 09:52:19;;;;;;;0.10;0.10;;;;;;;;;;5078378;28;20203;-70
2021/03/21 09:54:47;;;;;;;0.10;0.10;;;;;;;;;;5076405;28;20200;-70
2021/03/21 09:57:35;;;;;;;0.20;0.20;;;;;;;;;;5081289;28;20422;-70
2021/03/21 10:00:04;;;;;;;0.20;0.20;;;;;;;;;;5038338;28;20205;-71
2021/03/21 10:02:34;;;;;;;0.20;0.20;;;;;;;;;;5077759;28;20415;-71
2021/03/21 10:05:02;;;;;;;0.20;0.20;;;;;;;;;;5077378;28;20225;-70
2021/03/21 10:07:33;;;;;;;0.20;0.20;;;;;;;;;;5075038;28;20204;-71
2021/03/21 10:10:01;;;;;;;0.20;0.20;;;;;;;;;;5079427;28;20207;-70
2021/03/21 10:12:28;;;;;;;0.10;0.10;;;;;;;;;;5057923;28;20340;-71
2021/03/21 10:15:00;;;;;;;0.10;0.10;;;;;;;;;;5080630;28;20486;-70
2021/03/21 10:17:44;;;;;;;0.20;0.20;;;;;;;;;;5057525;28;20202;-71
2021/03/21 10:20:13;;;;;;;0.20;0.20;;;;;;;;;;5064556;28;20525;-71
2021/03/21 10:22:52;;;;;;;0.10;0.10;;;;;;;;;;5077578;28;20218;-72
2021/03/21 10:25:38;;;;;;;0.30;0.30;;;;;;;;;;5077005;28;20210;-70
2021/03/21 10:28:19;;;;;;;0.10;0.10;;;;;;;;;;5076895;28;20192;-70
2021/03/21 10:31:00;;;;;;;0.30;0.30;;;;;;;;;;5085861;28;20201;-71
2021/03/21 10:33:35;;;;;;;0.20;0.20;;;;;;;;;;5075793;28;20214;-71
2021/03/21 10:36:02;;;;;;;0.20;0.20;;;;;;;;;;5073736;28;20203;-70
2021/03/21 10:38:43;;;;;;;0.20;0.20;;;;;;;;;;5061615;28;20230;-70
2021/03/21 10:41:09;;;;;;;0.20;0.20;;;;;;;;;;5080361;28;20275;-70
2021/03/21 10:44:00;;;;;;;0.23;0.23;;;;;;;;;;5063959;28;20207;-72
2021/03/21 10:46:46;;;;;;;0.20;0.20;;;;;;;;;;5079808;28;20571;-71
2021/03/21 10:49:33;;;;;;;0.20;0.20;;;;;;;;;;5079427;28;20230;-71
2021/03/21 10:52:06;;;;;;;0.20;0.20;;;;;;;;;;5082682;28;20239;-71
2021/03/21 10:54:33;;;;;;;0.20;0.20;;;;;;;;;;5085782;28;20208;-73
2021/03/21 10:57:18;;;;;;;0.20;0.20;;;;;;;;;;5059800;28;20269;-71
2021/03/21 10:59:59;;;;;;;0.20;0.20;;;;;;;;;;5082254;28;20254;-72
2021/03/21 11:02:26;;;;;;;0.20;0.20;;;;;;;;;;5075160;28;20202;-71
2021/03/21 11:05:00;;;;;;;0.20;0.20;;;;;;;;;;5045929;28;20311;-71
2021/03/21 11:07:26;;;;;;;0.20;0.20;;;;;;;;;;5093188;28;20280;-72
2021/03/21 11:09:54;;;;;;;0.30;0.30;;;;;;;;;;5080702;28;20519;-72
2021/03/21 11:12:31;;;;;;;0.20;0.20;;;;;;;;;;5072693;28;20196;-69
2021/03/21 11:14:57;;;;;;;0.20;0.20;;;;;;;;;;5054856;28;20208;-70
2021/03/21 11:17:28;;;;;;;0.20;0.20;;;;;;;;;;5077311;28;20241;-69
2021/03/21 11:19:56;;;;;;;1.10;0.70;;;;;;;;;;5074636;28;20208;-72
2021/03/21 11:22:26;;;;;;;0.20;0.20;;;;;;;;;;5079755;28;20200;-71
2021/03/21 11:24:53;;;;;;;0.20;0.20;;;;;;;;;;5077669;28;20270;-71
2021/03/21 11:27:27;;;;;;;5.40;5.10;;;;;;;;;;5070271;28;20203;-71
2021/03/21 11:29:54;;;;;;;0.77;0.77;;;;;;;;;;5072344;28;20232;-64
2021/03/21 11:32:21;;;;;;;0.20;0.20;;;;;;;;;;5079271;28;21384;-71
2021/03/21 11:34:57;;;;;;;0.20;0.20;;;;;;;;;;5079872;28;20200;-71
2021/03/21 11:37:28;;;;;;;0.10;0.10;;;;;;;;;;5074021;28;20210;-72
2021/03/21 11:39:55;;;;;;;0.20;0.20;;;;;;;;;;5079507;28;20219;-72
2021/03/21 11:42:23;;;;;;;0.20;0.20;;;;;;;;;;5076472;28;20212;-71
2021/03/21 11:44:50;;;;;;;0.20;0.20;;;;;;;;;;5084373;28;20410;-72
2021/03/21 11:47:22;;;;;;;1.60;1.20;;;;;;;;;;5084932;28;20396;-70
2021/03/21 11:49:49;;;;;;;0.20;0.20;;;;;;;;;;5077259;28;20207;-71
2021/03/21 11:52:17;;;;;;;0.20;0.20;;;;;;;;;;5059902;28;20200;-72
2021/03/21 11:54:45;;;;;;;0.20;0.20;;;;;;;;;;5066275;28;20206;-71
2021/03/21 11:57:30;;;;;;;0.20;0.20;;;;;;;;;;5063605;28;20214;-73
2021/03/21 12:00:00;;;;;;;0.20;0.20;;;;;;;;;;5078222;28;20503;-73
2021/03/21 12:02:29;;;;;;;0.47;0.47;;;;;;;;;;5091474;28;20204;-72
2021/03/21 12:04:56;;;;;;;0.10;0.10;;;;;;;;;;5072762;28;20543;-70
2021/03/21 12:07:24;;;;;;;0.20;0.20;;;;;;;;;;5088321;28;20199;-72
2021/03/21 12:09:52;;;;;;;0.20;0.20;;;;;;;;;;5055059;28;20203;-75
2021/03/21 12:12:29;;;;;;;0.10;0.10;;;;;;;;;;5057957;28;20203;-72
2021/03/21 12:14:57;;;;;;;0.20;0.20;;;;;;;;;;5058878;28;20567;-75
2021/03/21 12:17:31;;;;;;;0.20;0.20;;;;;;;;;;5054333;28;20230;-73
2021/03/21 12:19:58;;;;;;;0.20;0.20;;;;;;;;;;5092428;28;20197;-75
2021/03/21 12:22:25;;;;;;;0.10;0.10;;;;;;;;;;5073823;28;20408;-74
2021/03/21 12:24:53;;;;;;;0.20;0.20;;;;;;;;;;5071539;28;20199;-73
2021/03/21 12:27:26;;;;;;;0.27;0.27;;;;;;;;;;5057547;28;20233;-72
2021/03/21 12:29:53;;;;;;;0.10;0.10;;;;;;;;;;5091211;28;20209;-72
2021/03/21 12:32:27;;;;;;;0.83;0.83;;;;;;;;;;5076448;28;20397;-72
2021/03/21 12:34:53;;;;;;;1.17;1.17;;;;;;;;;;5095489;28;20206;-72
2021/03/21 12:37:21;;;;;;;0.20;0.20;;;;;;;;;;5074209;28;20235;-73
2021/03/21 12:39:48;;;;;;;0.40;0.40;;;;;;;;;;5057323;28;20264;-73
2021/03/21 12:42:29;;;;;;;0.10;0.10;;;;;;;;;;5070857;28;20207;-72
2021/03/21 12:45:08;;;;;;;1.27;1.17;;;;;;;;;;5069759;28;20710;-74
2021/03/21 12:47:38;;;;;;;0.10;0.10;;;;;;;;;;5074921;28;20244;-73
2021/03/21 12:50:17;;;;;;;0.10;0.10;;;;;;;;;;5079849;28;20211;-73
2021/03/21 12:52:46;;;;;;;0.50;0.50;;;;;;;;;;5076497;28;20502;-71
2021/03/21 12:55:14;;;;;;;0.10;0.10;;;;;;;;;;5077988;28;20203;-73
2021/03/21 12:57:41;;;;;;;0.10;0.10;;;;;;;;;;5081089;28;20199;-73
2021/03/21 13:00:09;;;;;;;0.10;0.10;;;;;;;;;;5072919;28;20211;-74
2021/03/21 13:02:37;;;;;;;0.53;0.53;;;;;;;;;;5081021;28;20206;-73
2021/03/21 13:05:05;;;;;;;0.10;0.10;;;;;;;;;;5060921;28;20219;-71
2021/03/21 13:07:32;;;;;;;0.20;0.20;;;;;;;;;;5079083;28;20306;-72
2021/03/21 13:09:58;;;;;;;0.83;0.80;;;;;;;;;;5075628;28;20202;-70
2021/03/21 13:12:25;;;;;;;0.10;0.10;;;;;;;;;;5062201;28;20274;-70
2021/03/21 13:14:52;;;;;;;0.20;0.20;;;;;;;;;;5080158;28;20212;-72
2021/03/21 13:17:22;;;;;;;0.10;0.10;;;;;;;;;;5079052;28;20201;-71
2021/03/21 13:19:48;;;;;;;1.23;1.13;;;;;;;;;;5075557;28;20227;-71
2021/03/21 13:22:15;;;;;;;0.20;0.20;;;;;;;;;;5056155;28;20279;-74
2021/03/21 13:24:41;;;;;;;0.10;0.10;;;;;;;;;;5056566;28;20195;-72
2021/03/21 13:27:08;;;;;;;0.20;0.20;;;;;;;;;;5060432;28;20199;-72
2021/03/21 13:29:35;;;;;;;0.10;0.10;;;;;;;;;;5080339;28;20202;-72
2021/03/21 13:32:01;;;;;;;0.10;0.10;;;;;;;;;;5079911;28;20203;-73
2021/03/21 13:34:31;;;;;;;0.10;0.10;;;;;;;;;;5064977;28;20200;-73
2021/03/21 13:36:57;;;;;;;0.10;0.10;;;;;;;;;;5080926;28;20274;-72
2021/03/21 13:39:24;;;;;;;0.20;0.20;;;;;;;;;;5082281;28;20223;-71
2021/03/21 13:41:50;;;;;;;0.10;0.10;;;;;;;;;;5061207;28;20365;-72
2021/03/21 13:44:18;;;;;;;0.10;0.10;;;;;;;;;;5079321;28;20351;-72
2021/03/21 13:46:45;;;;;;;1.03;1.03;;;;;;;;;;5083228;28;20201;-73
2021/03/21 13:49:11;;;;;;;0.10;0.10;;;;;;;;;;5061632;28;20277;-71
2021/03/21 13:51:39;;;;;;;0.10;0.10;;;;;;;;;;5062049;28;20530;-73
2021/03/21 13:54:05;;;;;;;0.10;0.10;;;;;;;;;;5065105;28;20207;-73
2021/03/21 13:56:32;;;;;;;0.10;0.10;;;;;;;;;;5063431;28;20210;-73
2021/03/21 13:58:58;;;;;;;0.10;0.10;;;;;;;;;;5063937;28;20283;-74
2021/03/21 14:01:25;;;;;;;0.10;0.10;;;;;;;;;;5081656;28;20490;-71
2021/03/21 14:03:53;;;;;;;0.10;0.10;;;;;;;;;;5082725;28;20259;-72
2021/03/21 14:06:20;;;;;;;0.10;0.10;;;;;;;;;;5082208;28;20274;-72
2021/03/21 14:08:47;;;;;;;0.10;0.10;;;;;;;;;;5084437;28;20191;-73
2021/03/21 14:11:14;;;;;;;0.10;0.10;;;;;;;;;;5084779;28;20215;-71
2021/03/21 14:13:40;;;;;;;0.10;0.10;;;;;;;;;;5056291;28;20199;-72
2021/03/21 14:16:07;;;;;;;0.10;0.10;;;;;;;;;;5063736;28;20204;-72
2021/03/21 14:18:33;;;;;;;0.10;0.10;;;;;;;;;;5082004;28;20537;-72
2021/03/21 14:21:01;;;;;;;0.10;0.10;;;;;;;;;;5066353;28;20252;-72
2021/03/21 14:23:28;;;;;;;0.10;0.10;;;;;;;;;;5079964;28;20204;-72
2021/03/21 14:25:55;;;;;;;0.10;0.10;;;;;;;;;;5085489;28;20261;-73
2021/03/21 14:28:22;;;;;;;0.10;0.10;;;;;;;;;;5064521;28;20521;-73
2021/03/21 14:30:51;;;;;;;0.10;0.10;;;;;;;;;;5084946;28;20407;-72
2021/03/21 14:33:19;;;;;;;0.10;0.10;;;;;;;;;;5082305;28;20240;-72
2021/03/21 14:35:46;;;;;;;0.10;0.10;;;;;;;;;;5079758;28;20203;-72
2021/03/21 14:38:13;;;;;;;0.10;0.10;;;;;;;;;;5076925;28;20516;-72
2021/03/21 14:40:40;;;;;;;0.10;0.10;;;;;;;;;;5081011;28;20548;-73
2021/03/21 14:43:08;;;;;;;0.10;0.10;;;;;;;;;;5077335;28;20368;-73
2021/03/21 14:45:35;;;;;;;0.10;0.10;;;;;;;;;;5077482;28;20305;-70
2021/03/21 14:48:01;;;;;;;0.17;0.17;;;;;;;;;;5097333;28;20393;-74
2021/03/21 14:50:28;;;;;;;0.10;0.10;;;;;;;;;;5081643;28;20273;-73
2021/03/21 14:52:54;;;;;;;0.10;0.10;;;;;;;;;;5075986;28;20409;-75
2021/03/21 14:55:23;;;;;;;0.10;0.10;;;;;;;;;;5057855;28;20498;-74
2021/03/21 14:57:49;;;;;;;0.10;0.10;;;;;;;;;;5074562;28;20240;-73
2021/03/21 15:00:20;;;;;;;0.10;0.10;;;;;;;;;;5063474;28;20197;-72
2021/03/21 15:02:46;;;;;;;0.17;0.17;;;;;;;;;;5082030;28;20204;-72
2021/03/21 15:05:14;;;;;;;0.10;0.10;;;;;;;;;;5057839;28;20294;-73
2021/03/21 15:07:41;;;;;;;0.10;0.10;;;;;;;;;;5059228;28;20203;-74